createdAt,value
2022-09-17T00:02:16.473Z,9.23
2022-09-17T00:04:44.157Z,5.63
2022-09-17T00:07:11.936Z,5.07
2022-09-17T00:09:40.921Z,6.73
2022-09-17T00:12:09.687Z,6.50
2022-09-17T00:14:37.277Z,3.60
2022-09-17T00:17:04.980Z,9.03
2022-09-17T00:19:32.667Z,5.10
2022-09-17T00:22:00.440Z,9.60
2022-09-17T00:24:28.270Z,8.37
2022-09-17T00:26:57.321Z,5.03
2022-09-17T00:29:25.051Z,4.80
2022-09-17T00:31:52.843Z,8.33
2022-09-17T00:34:20.600Z,5.37
2022-09-17T00:36:48.189Z,5.10
2022-09-17T00:39:16.558Z,5.87
2022-09-17T00:41:44.717Z,8.27
2022-09-17T00:44:46.739Z,10.97
2022-09-17T00:47:20.333Z,7.93
2022-09-17T00:49:48.488Z,5.87
2022-09-17T00:52:23.038Z,6.57
2022-09-17T00:54:53.905Z,8.27
2022-09-17T00:57:21.708Z,5.13
2022-09-17T00:59:50.860Z,6.87
2022-09-17T01:02:18.604Z,7.40
2022-09-17T01:04:46.236Z,3.93
2022-09-17T01:07:19.748Z,6.53
2022-09-17T01:09:50.390Z,8.53
2022-09-17T01:12:28.599Z,8.77
2022-09-17T01:15:05.332Z,8.13
2022-09-17T01:17:36.358Z,7.30
2022-09-17T01:20:40.568Z,11.83
2022-09-17T01:23:23.217Z,11.33
2022-09-17T01:25:54.891Z,15.03
2022-09-17T01:28:29.332Z,10.40
2022-09-17T01:31:17.534Z,13.43
2022-09-17T01:33:49.494Z,11.97
2022-09-17T01:36:29.981Z,13.93
2022-09-17T01:39:01.123Z,12.53
2022-09-17T01:41:32.216Z,10.43
2022-09-17T01:44:02.553Z,11.10
2022-09-17T01:46:33.887Z,11.87
2022-09-17T01:49:03.074Z,10.03
2022-09-17T01:51:32.080Z,9.17
2022-09-17T01:54:03.061Z,10.43
2022-09-17T01:56:33.034Z,10.10
2022-09-17T01:59:03.062Z,11.80
2022-09-17T02:01:32.989Z,12.13
2022-09-17T02:04:03.626Z,14.77
2022-09-17T02:06:32.521Z,15.33
2022-09-17T02:09:01.734Z,14.43
2022-09-17T02:11:29.429Z,15.13
2022-09-17T02:13:59.135Z,11.93
2022-09-17T02:16:28.259Z,15.73
2022-09-17T02:18:59.432Z,13.00
2022-09-17T02:21:31.222Z,14.40
2022-09-17T02:24:06.175Z,12.70
2022-09-17T02:26:33.806Z,23.67
2022-09-17T02:29:03.163Z,14.17
2022-09-17T02:31:30.826Z,14.17
2022-09-17T02:34:02.780Z,18.17
2022-09-17T02:36:32.058Z,17.87
2022-09-17T02:39:01.519Z,15.77
2022-09-17T02:41:37.425Z,13.07
2022-09-17T02:44:10.564Z,16.57
2022-09-17T02:46:48.290Z,18.20
2022-09-17T02:49:26.356Z,13.03
2022-09-17T02:51:57.337Z,15.50
2022-09-17T02:54:27.060Z,16.23
2022-09-17T02:56:59.477Z,13.67
2022-09-17T02:59:30.555Z,15.27
2022-09-17T03:02:00.027Z,14.83
2022-09-17T03:04:29.562Z,14.30
2022-09-17T03:06:58.091Z,17.57
2022-09-17T03:09:25.896Z,20.40
2022-09-17T03:11:53.509Z,20.27
2022-09-17T03:14:21.261Z,15.37
2022-09-17T03:16:49.015Z,17.33
2022-09-17T03:19:16.650Z,15.40
2022-09-17T03:21:45.751Z,13.50
2022-09-17T03:24:13.567Z,16.63
2022-09-17T03:26:41.320Z,15.50
2022-09-17T03:29:09.195Z,12.87
2022-09-17T03:31:37.041Z,11.50
2022-09-17T03:34:04.821Z,10.30
2022-09-17T03:36:32.425Z,11.87
2022-09-17T03:39:02.164Z,10.67
2022-09-17T03:41:29.783Z,15.27
2022-09-17T03:43:57.502Z,14.70
2022-09-17T03:46:25.119Z,11.00
2022-09-17T03:48:52.934Z,14.80
2022-09-17T03:51:20.512Z,9.90
2022-09-17T03:53:48.340Z,10.73
2022-09-17T03:56:17.787Z,10.63
2022-09-17T03:58:51.774Z,7.10
2022-09-17T04:01:19.382Z,11.40
2022-09-17T04:03:47.074Z,8.30
2022-09-17T04:06:14.703Z,7.53
2022-09-17T04:08:43.559Z,6.60
2022-09-17T04:11:11.245Z,11.00
2022-09-17T04:13:40.339Z,9.17
2022-09-17T04:16:08.424Z,12.13
2022-09-17T04:18:36.093Z,8.10
2022-09-17T04:21:03.861Z,9.30
2022-09-17T04:23:31.463Z,9.00
2022-09-17T04:25:59.243Z,8.47
2022-09-17T04:28:26.913Z,10.53
2022-09-17T04:30:56.049Z,6.13
2022-09-17T04:33:23.648Z,5.33
2022-09-17T04:35:51.395Z,8.33
2022-09-17T04:40:54.484Z,9.77
2022-09-17T04:43:22.100Z,8.53
2022-09-17T04:45:50.550Z,9.93
2022-09-17T04:48:19.515Z,6.17
2022-09-17T04:50:47.521Z,9.23
2022-09-17T04:53:15.167Z,13.60
2022-09-17T04:55:43.635Z,8.37
2022-09-17T04:58:11.366Z,8.60
2022-09-17T05:00:39.381Z,7.40
2022-09-17T05:03:07.005Z,7.20
2022-09-17T05:05:36.096Z,10.47
2022-09-17T05:08:03.836Z,6.67
2022-09-17T05:10:31.672Z,9.87
2022-09-17T05:12:59.279Z,9.47
2022-09-17T05:15:27.734Z,7.93
2022-09-17T05:17:55.431Z,6.40
2022-09-17T05:20:23.367Z,10.07
2022-09-17T05:22:53.043Z,10.10
2022-09-17T05:25:24.061Z,8.47
2022-09-17T05:27:52.107Z,11.20
2022-09-17T05:30:19.900Z,8.73
2022-09-17T05:32:48.026Z,9.57
2022-09-17T05:35:15.836Z,13.10
2022-09-17T05:37:43.732Z,7.93
2022-09-17T05:40:12.800Z,8.90
2022-09-17T05:42:40.778Z,5.83
2022-09-17T05:45:09.469Z,12.73
2022-09-17T05:47:37.168Z,8.03
2022-09-17T05:50:05.313Z,6.13
2022-09-17T05:52:33.271Z,9.50
2022-09-17T05:55:00.900Z,8.83
2022-09-17T05:57:31.412Z,12.23
2022-09-17T05:59:59.047Z,7.73
2022-09-17T06:02:26.706Z,9.97
2022-09-17T06:04:54.864Z,7.83
2022-09-17T06:07:22.531Z,8.13
2022-09-17T06:09:50.472Z,9.33
2022-09-17T06:12:18.106Z,8.07
2022-09-17T06:14:47.132Z,7.50
2022-09-17T06:17:17.032Z,7.80
2022-09-17T06:19:47.984Z,8.73
2022-09-17T06:22:28.202Z,10.03
2022-09-17T06:24:55.812Z,7.07
2022-09-17T06:27:23.477Z,10.03
2022-09-17T06:29:52.417Z,4.97
2022-09-17T06:32:21.058Z,8.40
2022-09-17T06:34:49.418Z,6.43
2022-09-17T06:37:19.706Z,8.67
2022-09-17T06:39:54.037Z,7.53
2022-09-17T06:42:21.997Z,9.33
2022-09-17T06:44:49.596Z,9.17
2022-09-17T06:47:18.874Z,9.93
2022-09-17T06:49:46.500Z,5.23
2022-09-17T06:52:14.110Z,8.30
2022-09-17T06:54:41.891Z,10.07
2022-09-17T06:57:09.525Z,6.83
2022-09-17T06:59:37.279Z,12.77
2022-09-17T07:02:05.505Z,7.20
2022-09-17T07:04:34.701Z,7.97
2022-09-17T07:07:02.317Z,9.13
2022-09-17T07:09:30.122Z,8.00
2022-09-17T07:11:57.763Z,7.17
2022-09-17T07:14:25.891Z,5.10
2022-09-17T07:16:53.554Z,7.83
2022-09-17T07:19:21.462Z,9.17
2022-09-17T07:21:50.861Z,9.40
2022-09-17T07:24:18.630Z,12.13
2022-09-17T07:26:46.363Z,6.63
2022-09-17T07:29:13.958Z,6.00
2022-09-17T07:31:41.713Z,5.80
2022-09-17T07:34:09.393Z,7.10
2022-09-17T07:36:50.559Z,5.70
2022-09-17T07:39:18.743Z,8.20
2022-09-17T07:41:46.376Z,4.30
2022-09-17T07:44:14.110Z,4.33
2022-09-17T07:46:41.771Z,8.37
2022-09-17T07:49:09.558Z,5.57
2022-09-17T07:51:37.259Z,3.80
2022-09-17T07:54:07.121Z,6.23
2022-09-17T07:56:34.945Z,4.53
2022-09-17T07:59:03.314Z,5.03
2022-09-17T08:01:33.933Z,5.37
2022-09-17T08:04:01.974Z,6.17
2022-09-17T08:11:57.013Z,7.60
2022-09-17T08:14:29.466Z,5.53
2022-09-17T08:16:57.801Z,6.50
2022-09-17T08:19:25.531Z,6.18
2022-09-17T08:21:53.352Z,4.80
2022-09-17T08:24:21.033Z,5.63
2022-09-17T08:26:50.087Z,4.38
2022-09-17T08:29:17.952Z,4.65
2022-09-17T08:31:45.688Z,5.07
2022-09-17T08:34:14.008Z,6.18
2022-09-17T08:36:41.586Z,6.20
2022-09-17T08:39:11.126Z,4.28
2022-09-17T08:41:51.238Z,3.17
2022-09-17T08:47:21.981Z,4.53
2022-09-17T08:49:51.431Z,7.22
2022-09-17T08:52:37.888Z,2.47
2022-09-17T08:55:09.003Z,6.35
2022-09-17T08:57:41.254Z,4.63
2022-09-17T09:00:11.645Z,4.03
2022-09-17T09:02:47.289Z,3.92
2022-09-17T09:05:16.480Z,4.38
2022-09-17T09:07:45.801Z,5.88
2022-09-17T09:10:16.929Z,3.78
2022-09-17T09:12:45.936Z,7.53
2022-09-17T09:15:30.292Z,3.28
2022-09-17T09:17:58.309Z,2.47
2022-09-17T09:20:44.382Z,2.28
2022-09-17T09:23:15.344Z,4.25
2022-09-17T09:25:46.376Z,4.60
2022-09-17T09:28:31.836Z,4.82
2022-09-17T09:31:03.707Z,4.57
2022-09-17T09:33:31.997Z,2.85
2022-09-17T09:35:59.703Z,2.88
2022-09-17T09:38:32.273Z,5.45
2022-09-17T09:41:03.652Z,2.20
2022-09-17T09:44:02.150Z,2.90
2022-09-17T09:46:32.848Z,2.92
2022-09-17T09:49:06.952Z,2.97
2022-09-17T09:51:39.810Z,3.85
2022-09-17T09:54:20.752Z,3.75
2022-09-17T09:56:58.395Z,2.45
2022-09-17T09:59:27.486Z,3.88
2022-09-17T10:01:55.269Z,2.78
2022-09-17T10:04:23.896Z,3.03
2022-09-17T10:06:53.448Z,1.63
2022-09-17T10:09:22.261Z,2.63
2022-09-17T10:12:03.967Z,3.13
2022-09-17T10:14:33.532Z,3.15
2022-09-17T10:17:21.815Z,2.85
2022-09-17T10:20:22.069Z,3.58
2022-09-17T10:22:50.485Z,2.15
2022-09-17T10:25:24.089Z,3.88
2022-09-17T10:27:51.783Z,3.05
2022-09-17T10:30:20.739Z,3.40
2022-09-17T10:33:09.415Z,6.45
2022-09-17T10:35:37.014Z,4.38
2022-09-17T10:38:04.628Z,1.75
2022-09-17T10:40:33.380Z,3.63
2022-09-17T10:43:23.140Z,3.38
2022-09-17T10:46:01.970Z,3.58
2022-09-17T10:48:31.762Z,3.47
2022-09-17T10:50:59.360Z,3.75
2022-09-17T10:53:30.466Z,1.70
2022-09-17T10:56:07.128Z,3.50
2022-09-17T10:58:42.555Z,3.60
2022-09-17T11:01:19.577Z,4.30
2022-09-17T11:04:21.271Z,3.05
2022-09-17T11:07:06.047Z,3.90
2022-09-17T11:09:39.629Z,1.85
2022-09-17T11:12:22.526Z,1.80
2022-09-17T11:14:51.943Z,3.50
2022-09-17T11:17:33.249Z,1.95
2022-09-17T11:20:02.948Z,3.72
2022-09-17T11:22:45.643Z,1.63
2022-09-17T11:25:24.389Z,2.25
2022-09-17T11:28:05.376Z,1.83
2022-09-17T11:30:34.890Z,3.92
2022-09-17T11:33:20.787Z,4.07
2022-09-17T11:35:49.052Z,1.88
2022-09-17T11:38:19.345Z,8.02
2022-09-17T11:40:48.359Z,3.55
2022-09-17T11:43:20.573Z,2.55
2022-09-17T11:45:54.622Z,3.60
2022-09-17T11:48:25.332Z,9.20
2022-09-17T11:50:54.742Z,3.42
2022-09-17T11:53:24.477Z,2.58
2022-09-17T11:55:53.349Z,3.45
2022-09-17T11:58:25.457Z,3.60
2022-09-17T12:00:54.991Z,1.67
2022-09-17T12:03:26.021Z,2.10
2022-09-17T12:05:55.305Z,2.05
2022-09-17T12:08:24.867Z,1.35
2022-09-17T12:10:54.042Z,2.42
2022-09-17T12:13:28.353Z,4.10
2022-09-17T12:16:05.014Z,2.90
2022-09-17T12:18:43.727Z,4.10
2022-09-17T12:21:11.700Z,2.77
2022-09-17T12:23:42.016Z,3.63
2022-09-17T12:26:23.986Z,4.03
2022-09-17T12:28:54.621Z,5.03
2022-09-17T12:31:24.821Z,2.93
2022-09-17T12:33:55.634Z,4.90
2022-09-17T12:36:32.031Z,1.37
2022-09-17T12:39:32.119Z,3.27
2022-09-17T12:42:03.276Z,3.30
2022-09-17T12:44:59.094Z,3.07
2022-09-17T12:48:10.027Z,2.10
2022-09-17T12:50:45.581Z,1.77
2022-09-17T12:53:20.539Z,2.50
2022-09-17T12:55:56.538Z,4.40
2022-09-17T12:58:29.710Z,3.13
2022-09-17T13:01:01.934Z,1.83
2022-09-17T13:03:31.389Z,1.80
2022-09-17T13:06:18.541Z,3.13
2022-09-17T13:09:13.858Z,3.23
2022-09-17T13:11:55.618Z,2.63
2022-09-17T13:14:26.136Z,3.37
2022-09-17T13:16:55.369Z,3.17
2022-09-17T13:19:29.897Z,1.87
2022-09-17T13:22:02.669Z,1.93
2022-09-17T13:24:31.290Z,1.73
2022-09-17T13:27:00.026Z,0.90
2022-09-17T13:29:59.008Z,1.40
2022-09-17T13:32:46.026Z,1.30
2022-09-17T13:35:51.391Z,2.07
2022-09-17T13:38:23.775Z,2.33
2022-09-17T13:40:52.342Z,3.10
2022-09-17T13:43:24.465Z,2.60
2022-09-17T13:46:18.582Z,3.77
2022-09-17T13:48:50.327Z,4.60
2022-09-17T13:51:44.936Z,2.90
2022-09-17T13:54:14.043Z,2.47
2022-09-17T13:56:45.889Z,5.57
2022-09-17T13:59:14.994Z,2.67
2022-09-17T14:02:19.624Z,4.73
2022-09-17T14:04:52.367Z,3.67
2022-09-17T14:07:35.748Z,10.13
2022-09-17T14:10:26.545Z,7.43
2022-09-17T14:13:26.188Z,6.07
2022-09-17T14:16:02.478Z,2.43
2022-09-17T14:18:43.704Z,1.10
2022-09-17T14:21:16.886Z,1.80
2022-09-17T14:23:45.833Z,4.10
2022-09-17T14:26:20.737Z,2.87
2022-09-17T14:28:51.511Z,1.10
2022-09-17T14:31:19.992Z,1.00
2022-09-17T14:33:47.830Z,1.43
2022-09-17T14:36:17.534Z,3.20
2022-09-17T14:38:46.290Z,4.97
2022-09-17T14:41:22.200Z,5.93
2022-09-17T14:43:52.005Z,3.77
2022-09-17T14:46:22.379Z,4.17
2022-09-17T14:48:50.470Z,3.93
2022-09-17T14:51:29.503Z,2.13
2022-09-17T14:54:22.465Z,5.87
2022-09-17T14:56:57.882Z,5.23
2022-09-17T14:59:47.427Z,7.03
2022-09-17T15:02:32.823Z,5.17
2022-09-17T15:05:01.046Z,3.93
2022-09-17T15:07:28.808Z,5.43
2022-09-17T15:10:07.393Z,4.10
2022-09-17T15:12:35.227Z,3.77
2022-09-17T15:15:04.668Z,6.03
2022-09-17T15:17:33.330Z,2.90
2022-09-17T15:20:01.059Z,2.17
2022-09-17T15:22:29.652Z,2.80
2022-09-17T15:24:57.922Z,3.53
2022-09-17T15:27:27.493Z,4.97
2022-09-17T15:29:56.946Z,3.70
2022-09-17T15:32:25.907Z,6.73
2022-09-17T15:35:25.289Z,3.17
2022-09-17T15:38:18.909Z,5.80
2022-09-17T15:40:41.949Z,6.83
2022-09-17T15:43:16.833Z,5.20
2022-09-17T15:45:44.882Z,4.60
2022-09-17T15:48:25.060Z,5.30
2022-09-17T15:50:53.959Z,6.00
2022-09-17T15:53:26.044Z,8.30
2022-09-17T15:56:02.143Z,4.60
2022-09-17T15:58:32.986Z,3.73
2022-09-17T16:01:41.351Z,6.63
2022-09-17T16:04:18.858Z,4.30
2022-09-17T16:06:59.767Z,2.97
2022-09-17T16:09:43.007Z,7.20
2022-09-17T16:12:13.227Z,7.27
2022-09-17T16:14:49.482Z,4.73
2022-09-17T16:17:35.621Z,4.30
2022-09-17T16:20:10.125Z,4.13
2022-09-17T16:22:38.250Z,2.83
2022-09-17T16:25:06.907Z,7.50
2022-09-17T16:27:39.142Z,2.80
2022-09-17T16:30:09.331Z,9.30
2022-09-17T16:32:36.957Z,3.63
2022-09-17T16:35:05.095Z,1.67
2022-09-17T16:37:34.251Z,2.13
2022-09-17T16:40:02.323Z,1.87
2022-09-17T16:42:31.745Z,1.93
2022-09-17T16:45:01.037Z,2.57
2022-09-17T16:47:30.480Z,2.77
2022-09-17T16:52:25.920Z,0.73
2022-09-17T16:57:22.969Z,1.53
2022-09-17T16:59:50.713Z,1.60
2022-09-17T17:02:18.341Z,4.17
2022-09-17T17:04:46.542Z,3.83
2022-09-17T17:07:14.249Z,1.33
2022-09-17T17:09:41.877Z,3.17
2022-09-17T17:12:09.524Z,4.00
2022-09-17T17:14:38.503Z,1.63
2022-09-17T17:17:06.216Z,4.40
2022-09-17T17:19:34.723Z,2.63
2022-09-17T17:22:02.465Z,1.87
2022-09-17T17:24:31.110Z,3.83
2022-09-17T17:26:58.701Z,1.83
2022-09-17T17:29:26.500Z,1.43
2022-09-17T17:31:55.571Z,4.40
2022-09-17T17:34:23.165Z,4.10
2022-09-17T17:36:50.984Z,3.13
2022-09-17T17:39:18.644Z,4.73
2022-09-17T17:41:51.631Z,7.30
2022-09-17T17:44:19.746Z,4.73
2022-09-17T17:46:47.424Z,3.40
2022-09-17T17:49:16.973Z,3.37
2022-09-17T17:51:45.019Z,3.70
2022-09-17T17:54:12.774Z,3.00
2022-09-17T17:56:40.402Z,2.93
2022-09-17T17:59:07.989Z,4.33
2022-09-17T18:01:35.910Z,3.43
2022-09-17T18:04:05.183Z,4.73
2022-09-17T18:06:34.385Z,5.67
2022-09-17T18:09:02.217Z,6.23
2022-09-17T18:11:30.008Z,5.23
2022-09-17T18:13:58.355Z,4.47
2022-09-17T18:16:26.171Z,6.53
2022-09-17T18:18:53.933Z,4.27
2022-09-17T18:21:22.810Z,9.27
2022-09-17T18:23:51.958Z,5.90
2022-09-17T18:26:20.296Z,10.13
2022-09-17T18:28:48.225Z,5.97
2022-09-17T18:31:20.887Z,9.40
2022-09-17T18:33:48.559Z,7.87
2022-09-17T18:36:16.171Z,6.77
2022-09-17T18:38:43.859Z,9.03
2022-09-17T18:41:13.356Z,7.27
2022-09-17T18:43:41.285Z,8.27
2022-09-17T18:46:09.720Z,9.47
2022-09-17T18:48:37.728Z,11.23
2022-09-17T18:51:06.567Z,7.13
2022-09-17T18:53:36.086Z,8.87
2022-09-17T18:56:05.002Z,9.73
2022-09-17T18:58:33.989Z,6.47
2022-09-17T19:01:01.762Z,7.50
2022-09-17T19:03:31.933Z,11.83
2022-09-17T19:06:00.317Z,13.60
2022-09-17T19:08:29.280Z,14.00
2022-09-17T19:10:58.720Z,11.80
2022-09-17T19:13:26.642Z,13.70
2022-09-17T19:16:00.132Z,13.07
2022-09-17T19:18:27.926Z,20.80
2022-09-17T19:21:00.443Z,15.30
2022-09-17T19:23:28.156Z,10.47
2022-09-17T19:25:55.780Z,8.23
2022-09-17T19:28:23.529Z,10.37
2022-09-17T19:30:51.302Z,12.20
2022-09-17T19:33:20.642Z,7.13
2022-09-17T19:35:50.557Z,11.47
2022-09-17T19:38:18.389Z,5.67
2022-09-17T19:40:55.652Z,10.30
2022-09-17T19:43:23.365Z,9.77
2022-09-17T19:45:51.122Z,7.53
2022-09-17T19:59:00.025Z,6.10
2022-09-17T20:01:27.662Z,11.03
2022-09-17T20:03:57.398Z,7.97
2022-09-17T20:06:25.029Z,5.47
2022-09-17T20:08:53.795Z,7.20
2022-09-17T20:11:22.312Z,7.70
2022-09-17T20:13:52.273Z,8.83
2022-09-17T20:16:22.522Z,10.43
2022-09-17T20:18:50.617Z,9.83
2022-09-17T20:21:18.942Z,7.93
2022-09-17T20:23:46.631Z,7.23
2022-09-17T20:26:14.541Z,6.23
2022-09-17T20:28:42.335Z,7.50
2022-09-17T20:31:12.022Z,8.30
2022-09-17T20:33:41.173Z,6.67
2022-09-17T20:36:10.845Z,8.03
2022-09-17T20:41:27.377Z,11.83
2022-09-17T20:43:55.106Z,6.77
2022-09-17T20:46:28.352Z,5.17
2022-09-17T20:48:58.584Z,5.17
2022-09-17T20:51:27.621Z,6.53
2022-09-17T20:53:56.989Z,6.83
2022-09-17T20:56:25.564Z,5.47
2022-09-17T20:58:54.671Z,4.47
2022-09-17T21:01:23.302Z,4.67
2022-09-17T21:03:51.829Z,3.97
2022-09-17T21:06:22.073Z,6.30
2022-09-17T21:08:49.848Z,2.53
2022-09-17T21:11:17.789Z,5.13
2022-09-17T21:13:45.754Z,5.37
2022-09-17T21:16:14.589Z,2.93
2022-09-17T21:18:42.506Z,3.23
2022-09-17T21:21:11.781Z,3.23
2022-09-17T21:23:41.053Z,4.17
2022-09-17T21:26:09.765Z,3.57
2022-09-17T21:28:37.595Z,6.57
2022-09-17T21:31:06.496Z,5.87
2022-09-17T21:33:35.255Z,1.63
2022-09-17T21:36:04.820Z,3.10
2022-09-17T21:38:32.889Z,1.60
2022-09-17T21:41:02.932Z,6.17
2022-09-17T21:43:30.863Z,5.17
2022-09-17T21:45:59.905Z,3.87
2022-09-17T21:48:27.703Z,5.80
2022-09-17T21:50:55.397Z,4.93
2022-09-17T21:53:23.085Z,2.93
2022-09-17T21:55:50.903Z,5.23
2022-09-17T21:58:20.104Z,1.47
2022-09-17T22:00:49.435Z,3.67
2022-09-17T22:03:20.237Z,3.23
2022-09-17T22:05:47.946Z,5.63
2022-09-17T22:08:15.571Z,5.70
2022-09-17T22:10:43.267Z,5.83
2022-09-17T22:13:10.964Z,4.63
2022-09-17T22:15:40.157Z,4.60
2022-09-17T22:18:12.690Z,5.00
2022-09-17T22:20:43.535Z,3.57
2022-09-17T22:23:11.217Z,5.90
2022-09-17T22:25:38.857Z,6.63
2022-09-17T22:28:20.588Z,6.53
2022-09-17T22:30:50.632Z,7.33
2022-09-17T22:33:18.292Z,4.23
2022-09-17T22:35:46.035Z,5.87
2022-09-17T22:38:13.642Z,6.27
2022-09-17T22:40:42.330Z,4.43
2022-09-17T22:43:09.937Z,7.27
2022-09-17T22:45:37.653Z,4.50
2022-09-17T22:48:06.794Z,4.10
2022-09-17T22:50:34.546Z,5.27
2022-09-17T22:53:02.518Z,5.03
2022-09-17T22:55:30.874Z,4.33
2022-09-17T22:57:58.468Z,3.37
2022-09-17T23:00:26.241Z,4.33
2022-09-17T23:02:53.906Z,3.67
2022-09-17T23:05:23.092Z,6.17
2022-09-17T23:07:50.828Z,3.80
2022-09-17T23:10:18.949Z,2.10
2022-09-17T23:12:46.599Z,2.80
2022-09-17T23:15:14.417Z,5.60
2022-09-17T23:17:43.551Z,8.97
2022-09-17T23:20:12.175Z,3.33
2022-09-17T23:22:41.138Z,4.43
2022-09-17T23:25:10.226Z,3.60
2022-09-17T23:27:37.927Z,4.60
2022-09-17T23:30:06.157Z,4.17
2022-09-17T23:32:33.856Z,4.93
2022-09-17T23:35:01.659Z,3.63
2022-09-17T23:37:29.280Z,6.20
2022-09-17T23:39:58.457Z,4.47
2022-09-17T23:42:26.072Z,4.00
2022-09-17T23:44:53.789Z,4.50
2022-09-17T23:47:21.624Z,5.67
2022-09-17T23:49:49.857Z,8.37
2022-09-17T23:52:17.444Z,4.00
2022-09-17T23:54:45.043Z,8.20
2022-09-17T23:57:14.382Z,5.23
2022-09-17T23:59:41.997Z,7.60
